sensor_id;sensor_type;location;lat;lon;timestamp;P1;durP1;ratioP1;P2;durP2;ratioP2
77298;SDS011;66361;52.034;20.656;2024-01-16T00:02:28;4.50;;;1.80;;
77298;SDS011;66361;52.034;20.656;2024-01-16T00:06:12;1.65;;;1.52;;
77298;SDS011;66361;52.034;20.656;2024-01-16T00:09:56;1.50;;;1.40;;
77298;SDS011;66361;52.034;20.656;2024-01-16T00:13:41;2.53;;;1.40;;
77298;SDS011;66361;52.034;20.656;2024-01-16T00:21:09;1.40;;;1.30;;
77298;SDS011;66361;52.034;20.656;2024-01-16T00:24:53;0.95;;;0.90;;
77298;SDS011;66361;52.034;20.656;2024-01-16T00:28:37;1.67;;;1.35;;
77298;SDS011;66361;52.034;20.656;2024-01-16T00:32:22;1.83;;;1.60;;
77298;SDS011;66361;52.034;20.656;2024-01-16T00:36:06;2.53;;;1.80;;
77298;SDS011;66361;52.034;20.656;2024-01-16T00:39:51;2.58;;;1.77;;
77298;SDS011;66361;52.034;20.656;2024-01-16T00:43:35;1.67;;;1.42;;
77298;SDS011;66361;52.034;20.656;2024-01-16T00:47:18;1.88;;;1.75;;
77298;SDS011;66361;52.034;20.656;2024-01-16T00:51:04;1.73;;;1.63;;
77298;SDS011;66361;52.034;20.656;2024-01-16T01:02:16;0.85;;;0.85;;
77298;SDS011;66361;52.034;20.656;2024-01-16T01:06:00;1.13;;;1.02;;
77298;SDS011;66361;52.034;20.656;2024-01-16T01:09:46;3.53;;;1.50;;
77298;SDS011;66361;52.034;20.656;2024-01-16T01:13:33;1.73;;;1.63;;
77298;SDS011;66361;52.034;20.656;2024-01-16T01:17:17;1.77;;;1.67;;
77298;SDS011;66361;52.034;20.656;2024-01-16T01:21:01;1.65;;;1.52;;
77298;SDS011;66361;52.034;20.656;2024-01-16T01:24:46;1.80;;;1.70;;
77298;SDS011;66361;52.034;20.656;2024-01-16T01:28:30;1.30;;;1.20;;
77298;SDS011;66361;52.034;20.656;2024-01-16T01:32:14;1.67;;;1.48;;
77298;SDS011;66361;52.034;20.656;2024-01-16T01:35:58;1.48;;;1.20;;
77298;SDS011;66361;52.034;20.656;2024-01-16T01:39:42;1.77;;;1.65;;
77298;SDS011;66361;52.034;20.656;2024-01-16T01:43:28;2.67;;;2.58;;
77298;SDS011;66361;52.034;20.656;2024-01-16T01:47:11;1.33;;;1.23;;
77298;SDS011;66361;52.034;20.656;2024-01-16T01:50:56;2.47;;;1.52;;
77298;SDS011;66361;52.034;20.656;2024-01-16T01:54:40;2.38;;;2.17;;
77298;SDS011;66361;52.034;20.656;2024-01-16T01:58:24;3.28;;;3.08;;
77298;SDS011;66361;52.034;20.656;2024-01-16T02:02:09;2.38;;;1.75;;
77298;SDS011;66361;52.034;20.656;2024-01-16T02:05:55;3.28;;;2.40;;
77298;SDS011;66361;52.034;20.656;2024-01-16T02:09:39;1.52;;;1.42;;
77298;SDS011;66361;52.034;20.656;2024-01-16T02:13:23;1.02;;;1.02;;
77298;SDS011;66361;52.034;20.656;2024-01-16T02:17:07;1.90;;;1.73;;
77298;SDS011;66361;52.034;20.656;2024-01-16T02:20:53;3.50;;;1.52;;
77298;SDS011;66361;52.034;20.656;2024-01-16T02:24:44;2.05;;;1.85;;
77298;SDS011;66361;52.034;20.656;2024-01-16T02:28:28;2.25;;;1.90;;
77298;SDS011;66361;52.034;20.656;2024-01-16T02:32:12;2.63;;;2.33;;
77298;SDS011;66361;52.034;20.656;2024-01-16T02:35:58;3.60;;;1.60;;
77298;SDS011;66361;52.034;20.656;2024-01-16T02:39:43;2.97;;;1.42;;
77298;SDS011;66361;52.034;20.656;2024-01-16T02:43:27;2.35;;;2.00;;
77298;SDS011;66361;52.034;20.656;2024-01-16T02:47:11;2.50;;;1.85;;
77298;SDS011;66361;52.034;20.656;2024-01-16T02:50:55;2.78;;;2.08;;
77298;SDS011;66361;52.034;20.656;2024-01-16T02:54:39;2.65;;;2.03;;
77298;SDS011;66361;52.034;20.656;2024-01-16T02:58:25;2.22;;;1.67;;
77298;SDS011;66361;52.034;20.656;2024-01-16T03:02:09;1.70;;;1.60;;
77298;SDS011;66361;52.034;20.656;2024-01-16T03:05:54;2.25;;;1.83;;
77298;SDS011;66361;52.034;20.656;2024-01-16T03:09:38;3.25;;;2.08;;
77298;SDS011;66361;52.034;20.656;2024-01-16T03:13:24;2.42;;;1.73;;
77298;SDS011;66361;52.034;20.656;2024-01-16T03:17:08;3.78;;;1.88;;
77298;SDS011;66361;52.034;20.656;2024-01-16T03:20:52;1.80;;;1.45;;
77298;SDS011;66361;52.034;20.656;2024-01-16T03:24:36;4.10;;;1.73;;
77298;SDS011;66361;52.034;20.656;2024-01-16T03:28:20;1.95;;;1.73;;
77298;SDS011;66361;52.034;20.656;2024-01-16T03:32:05;4.40;;;2.90;;
77298;SDS011;66361;52.034;20.656;2024-01-16T03:35:49;4.25;;;2.20;;
77298;SDS011;66361;52.034;20.656;2024-01-16T03:39:33;2.80;;;1.80;;
77298;SDS011;66361;52.034;20.656;2024-01-16T03:43:17;2.63;;;2.17;;
77298;SDS011;66361;52.034;20.656;2024-01-16T03:47:01;1.48;;;1.38;;
77298;SDS011;66361;52.034;20.656;2024-01-16T03:50:47;2.40;;;2.15;;
77298;SDS011;66361;52.034;20.656;2024-01-16T03:54:31;2.53;;;2.33;;
77298;SDS011;66361;52.034;20.656;2024-01-16T03:58:14;4.32;;;2.45;;
77298;SDS011;66361;52.034;20.656;2024-01-16T04:02:00;3.13;;;2.25;;
77298;SDS011;66361;52.034;20.656;2024-01-16T04:05:46;2.08;;;1.98;;
77298;SDS011;66361;52.034;20.656;2024-01-16T04:09:31;2.38;;;2.00;;
77298;SDS011;66361;52.034;20.656;2024-01-16T04:13:15;2.92;;;2.13;;
77298;SDS011;66361;52.034;20.656;2024-01-16T04:16:59;1.80;;;1.70;;
77298;SDS011;66361;52.034;20.656;2024-01-16T04:20:43;2.08;;;1.85;;
77298;SDS011;66361;52.034;20.656;2024-01-16T04:24:29;2.35;;;2.10;;
77298;SDS011;66361;52.034;20.656;2024-01-16T04:28:13;1.45;;;1.30;;
77298;SDS011;66361;52.034;20.656;2024-01-16T04:31:57;2.70;;;2.50;;
77298;SDS011;66361;52.034;20.656;2024-01-16T04:35:42;2.70;;;1.75;;
77298;SDS011;66361;52.034;20.656;2024-01-16T04:39:26;4.45;;;1.85;;
77298;SDS011;66361;52.034;20.656;2024-01-16T04:43:13;5.53;;;2.60;;
77298;SDS011;66361;52.034;20.656;2024-01-16T04:46:58;1.88;;;1.70;;
77298;SDS011;66361;52.034;20.656;2024-01-16T04:50:42;2.65;;;1.95;;
77298;SDS011;66361;52.034;20.656;2024-01-16T04:54:27;1.90;;;1.80;;
77298;SDS011;66361;52.034;20.656;2024-01-16T04:58:12;2.30;;;2.08;;
77298;SDS011;66361;52.034;20.656;2024-01-16T05:01:56;1.77;;;1.67;;
77298;SDS011;66361;52.034;20.656;2024-01-16T05:05:40;2.40;;;2.20;;
77298;SDS011;66361;52.034;20.656;2024-01-16T05:09:25;2.13;;;1.98;;
77298;SDS011;66361;52.034;20.656;2024-01-16T05:13:09;2.08;;;1.88;;
77298;SDS011;66361;52.034;20.656;2024-01-16T05:16:55;1.63;;;1.35;;
77298;SDS011;66361;52.034;20.656;2024-01-16T05:20:39;6.38;;;1.92;;
77298;SDS011;66361;52.034;20.656;2024-01-16T05:24:23;1.70;;;1.60;;
77298;SDS011;66361;52.034;20.656;2024-01-16T05:28:07;1.40;;;1.30;;
77298;SDS011;66361;52.034;20.656;2024-01-16T05:31:51;3.13;;;2.92;;
77298;SDS011;66361;52.034;20.656;2024-01-16T05:35:36;2.15;;;1.73;;
77298;SDS011;66361;52.034;20.656;2024-01-16T05:39:25;2.72;;;2.22;;
77298;SDS011;66361;52.034;20.656;2024-01-16T05:43:09;2.45;;;2.05;;
77298;SDS011;66361;52.034;20.656;2024-01-16T05:46:53;3.50;;;3.28;;
77298;SDS011;66361;52.034;20.656;2024-01-16T05:50:39;2.20;;;1.92;;
77298;SDS011;66361;52.034;20.656;2024-01-16T05:54:24;3.75;;;2.10;;
77298;SDS011;66361;52.034;20.656;2024-01-16T05:58:10;1.65;;;1.55;;
77298;SDS011;66361;52.034;20.656;2024-01-16T06:01:56;2.22;;;2.08;;
77298;SDS011;66361;52.034;20.656;2024-01-16T06:05:41;3.28;;;3.05;;
77298;SDS011;66361;52.034;20.656;2024-01-16T06:09:25;3.35;;;2.92;;
77298;SDS011;66361;52.034;20.656;2024-01-16T06:13:11;1.77;;;1.67;;
77298;SDS011;66361;52.034;20.656;2024-01-16T06:16:55;2.63;;;1.70;;
77298;SDS011;66361;52.034;20.656;2024-01-16T06:20:41;2.53;;;1.80;;
77298;SDS011;66361;52.034;20.656;2024-01-16T06:24:25;1.52;;;1.42;;
77298;SDS011;66361;52.034;20.656;2024-01-16T06:28:09;2.75;;;2.55;;
77298;SDS011;66361;52.034;20.656;2024-01-16T06:31:53;1.95;;;1.75;;
77298;SDS011;66361;52.034;20.656;2024-01-16T06:35:38;2.85;;;2.65;;
77298;SDS011;66361;52.034;20.656;2024-01-16T06:39:24;2.78;;;2.38;;
77298;SDS011;66361;52.034;20.656;2024-01-16T06:43:08;2.80;;;2.17;;
77298;SDS011;66361;52.034;20.656;2024-01-16T06:46:53;5.00;;;2.50;;
77298;SDS011;66361;52.034;20.656;2024-01-16T06:50:37;1.85;;;1.70;;
77298;SDS011;66361;52.034;20.656;2024-01-16T06:54:21;1.75;;;1.65;;
77298;SDS011;66361;52.034;20.656;2024-01-16T06:58:06;2.78;;;2.25;;
77298;SDS011;66361;52.034;20.656;2024-01-16T07:01:51;2.85;;;2.53;;
77298;SDS011;66361;52.034;20.656;2024-01-16T07:05:36;2.55;;;2.05;;
77298;SDS011;66361;52.034;20.656;2024-01-16T07:09:22;2.97;;;2.20;;
77298;SDS011;66361;52.034;20.656;2024-01-16T07:13:08;3.17;;;2.40;;
77298;SDS011;66361;52.034;20.656;2024-01-16T07:16:53;2.90;;;2.20;;
77298;SDS011;66361;52.034;20.656;2024-01-16T07:20:42;3.30;;;2.70;;
77298;SDS011;66361;52.034;20.656;2024-01-16T07:24:27;2.30;;;2.10;;
77298;SDS011;66361;52.034;20.656;2024-01-16T07:28:13;3.40;;;2.97;;
77298;SDS011;66361;52.034;20.656;2024-01-16T07:31:57;5.13;;;2.80;;
77298;SDS011;66361;52.034;20.656;2024-01-16T07:35:42;5.85;;;3.45;;
77298;SDS011;66361;52.034;20.656;2024-01-16T07:39:30;2.55;;;2.35;;
77298;SDS011;66361;52.034;20.656;2024-01-16T07:43:20;3.65;;;2.92;;
77298;SDS011;66361;52.034;20.656;2024-01-16T07:47:04;4.35;;;3.95;;
77298;SDS011;66361;52.034;20.656;2024-01-16T07:50:52;3.63;;;2.90;;
77298;SDS011;66361;52.034;20.656;2024-01-16T07:54:36;2.78;;;2.13;;
77298;SDS011;66361;52.034;20.656;2024-01-16T07:58:21;3.15;;;2.15;;
77298;SDS011;66361;52.034;20.656;2024-01-16T08:02:08;4.07;;;3.15;;
77298;SDS011;66361;52.034;20.656;2024-01-16T08:05:52;2.72;;;2.03;;
77298;SDS011;66361;52.034;20.656;2024-01-16T08:09:37;3.72;;;2.55;;
77298;SDS011;66361;52.034;20.656;2024-01-16T08:13:22;4.13;;;3.78;;
77298;SDS011;66361;52.034;20.656;2024-01-16T08:17:08;3.65;;;2.08;;
77298;SDS011;66361;52.034;20.656;2024-01-16T08:20:53;6.30;;;2.30;;
77298;SDS011;66361;52.034;20.656;2024-01-16T08:24:36;2.97;;;2.28;;
77298;SDS011;66361;52.034;20.656;2024-01-16T08:28:20;2.72;;;2.53;;
77298;SDS011;66361;52.034;20.656;2024-01-16T08:32:06;2.28;;;1.83;;
77298;SDS011;66361;52.034;20.656;2024-01-16T08:35:50;2.88;;;2.13;;
77298;SDS011;66361;52.034;20.656;2024-01-16T08:39:34;3.25;;;2.25;;
77298;SDS011;66361;52.034;20.656;2024-01-16T08:43:18;2.40;;;2.20;;
77298;SDS011;66361;52.034;20.656;2024-01-16T08:47:06;2.30;;;2.10;;
77298;SDS011;66361;52.034;20.656;2024-01-16T08:50:51;2.72;;;1.90;;
77298;SDS011;66361;52.034;20.656;2024-01-16T08:54:36;2.10;;;1.92;;
77298;SDS011;66361;52.034;20.656;2024-01-16T08:58:20;2.08;;;1.65;;
77298;SDS011;66361;52.034;20.656;2024-01-16T09:02:05;5.32;;;2.40;;
77298;SDS011;66361;52.034;20.656;2024-01-16T09:05:48;4.10;;;2.15;;
77298;SDS011;66361;52.034;20.656;2024-01-16T09:09:32;4.03;;;2.75;;
77298;SDS011;66361;52.034;20.656;2024-01-16T09:13:16;2.30;;;2.10;;
77298;SDS011;66361;52.034;20.656;2024-01-16T09:17:00;4.18;;;2.47;;
77298;SDS011;66361;52.034;20.656;2024-01-16T09:20:46;4.93;;;2.17;;
77298;SDS011;66361;52.034;20.656;2024-01-16T09:24:30;3.00;;;2.38;;
77298;SDS011;66361;52.034;20.656;2024-01-16T09:28:14;6.00;;;3.03;;
77298;SDS011;66361;52.034;20.656;2024-01-16T09:31:58;1.50;;;1.40;;
77298;SDS011;66361;52.034;20.656;2024-01-16T09:35:42;2.90;;;2.65;;
77298;SDS011;66361;52.034;20.656;2024-01-16T09:39:28;3.25;;;2.60;;
77298;SDS011;66361;52.034;20.656;2024-01-16T09:43:13;5.85;;;2.60;;
77298;SDS011;66361;52.034;20.656;2024-01-16T09:46:57;3.90;;;2.03;;
77298;SDS011;66361;52.034;20.656;2024-01-16T09:50:42;4.03;;;2.05;;
77298;SDS011;66361;52.034;20.656;2024-01-16T09:54:27;2.45;;;1.55;;
77298;SDS011;66361;52.034;20.656;2024-01-16T09:58:12;6.05;;;2.10;;
77298;SDS011;66361;52.034;20.656;2024-01-16T10:01:56;2.47;;;2.22;;
77298;SDS011;66361;52.034;20.656;2024-01-16T10:05:43;3.42;;;1.70;;
77298;SDS011;66361;52.034;20.656;2024-01-16T10:09:31;2.95;;;1.50;;
77298;SDS011;66361;52.034;20.656;2024-01-16T10:13:15;3.97;;;2.58;;
77298;SDS011;66361;52.034;20.656;2024-01-16T10:17:00;4.07;;;1.92;;
77298;SDS011;66361;52.034;20.656;2024-01-16T10:20:48;1.27;;;1.15;;
77298;SDS011;66361;52.034;20.656;2024-01-16T10:24:33;2.42;;;1.73;;
77298;SDS011;66361;52.034;20.656;2024-01-16T10:28:19;4.15;;;1.80;;
77298;SDS011;66361;52.034;20.656;2024-01-16T10:32:08;0.88;;;0.88;;
77298;SDS011;66361;52.034;20.656;2024-01-16T10:35:52;2.72;;;1.60;;
77298;SDS011;66361;52.034;20.656;2024-01-16T10:39:51;4.00;;;2.55;;
77298;SDS011;66361;52.034;20.656;2024-01-16T10:43:36;2.00;;;1.80;;
77298;SDS011;66361;52.034;20.656;2024-01-16T10:47:21;1.95;;;1.52;;
77298;SDS011;66361;52.034;20.656;2024-01-16T10:51:05;1.98;;;1.70;;
77298;SDS011;66361;52.034;20.656;2024-01-16T10:54:53;1.65;;;1.55;;
77298;SDS011;66361;52.034;20.656;2024-01-16T10:58:46;4.28;;;1.77;;
77298;SDS011;66361;52.034;20.656;2024-01-16T11:02:42;4.97;;;1.85;;
77298;SDS011;66361;52.034;20.656;2024-01-16T11:10:18;1.65;;;1.55;;
77298;SDS011;66361;52.034;20.656;2024-01-16T11:14:03;7.88;;;1.92;;
77298;SDS011;66361;52.034;20.656;2024-01-16T11:17:48;1.42;;;1.33;;
77298;SDS011;66361;52.034;20.656;2024-01-16T11:21:33;2.47;;;2.22;;
77298;SDS011;66361;52.034;20.656;2024-01-16T11:25:20;2.28;;;2.08;;
77298;SDS011;66361;52.034;20.656;2024-01-16T11:37:28;2.70;;;2.33;;
77298;SDS011;66361;52.034;20.656;2024-01-16T11:41:26;1.95;;;1.80;;
77298;SDS011;66361;52.034;20.656;2024-01-16T11:45:52;2.10;;;1.90;;
77298;SDS011;66361;52.034;20.656;2024-01-16T11:49:36;3.17;;;1.75;;
77298;SDS011;66361;52.034;20.656;2024-01-16T11:53:32;2.70;;;2.13;;
77298;SDS011;66361;52.034;20.656;2024-01-16T11:57:25;3.25;;;2.75;;
77298;SDS011;66361;52.034;20.656;2024-01-16T12:01:19;2.83;;;2.08;;
77298;SDS011;66361;52.034;20.656;2024-01-16T12:05:04;2.63;;;1.83;;
77298;SDS011;66361;52.034;20.656;2024-01-16T12:08:49;2.10;;;1.90;;
77298;SDS011;66361;52.034;20.656;2024-01-16T12:12:35;2.78;;;1.75;;
77298;SDS011;66361;52.034;20.656;2024-01-16T12:16:19;3.30;;;2.22;;
77298;SDS011;66361;52.034;20.656;2024-01-16T12:20:15;1.65;;;1.55;;
77298;SDS011;66361;52.034;20.656;2024-01-16T12:24:00;2.55;;;1.60;;
77298;SDS011;66361;52.034;20.656;2024-01-16T12:27:57;2.35;;;2.15;;
77298;SDS011;66361;52.034;20.656;2024-01-16T12:31:42;1.70;;;1.42;;
77298;SDS011;66361;52.034;20.656;2024-01-16T12:35:26;1.70;;;1.52;;
77298;SDS011;66361;52.034;20.656;2024-01-16T12:39:10;2.00;;;1.63;;
77298;SDS011;66361;52.034;20.656;2024-01-16T12:42:55;3.92;;;2.53;;
77298;SDS011;66361;52.034;20.656;2024-01-16T12:46:40;5.20;;;2.70;;
77298;SDS011;66361;52.034;20.656;2024-01-16T12:50:25;2.65;;;2.33;;
77298;SDS011;66361;52.034;20.656;2024-01-16T12:54:12;2.90;;;2.60;;
77298;SDS011;66361;52.034;20.656;2024-01-16T12:58:13;5.80;;;2.58;;
77298;SDS011;66361;52.034;20.656;2024-01-16T13:02:00;2.13;;;1.95;;
77298;SDS011;66361;52.034;20.656;2024-01-16T13:05:44;3.38;;;2.15;;
77298;SDS011;66361;52.034;20.656;2024-01-16T13:09:29;2.67;;;2.47;;
77298;SDS011;66361;52.034;20.656;2024-01-16T13:13:14;3.67;;;2.50;;
77298;SDS011;66361;52.034;20.656;2024-01-16T13:17:00;4.30;;;2.35;;
77298;SDS011;66361;52.034;20.656;2024-01-16T13:20:45;1.38;;;1.33;;
77298;SDS011;66361;52.034;20.656;2024-01-16T13:24:31;2.65;;;2.00;;
77298;SDS011;66361;52.034;20.656;2024-01-16T13:28:16;4.28;;;2.47;;
77298;SDS011;66361;52.034;20.656;2024-01-16T13:32:05;3.85;;;2.50;;
77298;SDS011;66361;52.034;20.656;2024-01-16T13:35:49;2.75;;;2.15;;
77298;SDS011;66361;52.034;20.656;2024-01-16T13:39:34;1.67;;;1.58;;
77298;SDS011;66361;52.034;20.656;2024-01-16T13:43:20;3.75;;;2.20;;
77298;SDS011;66361;52.034;20.656;2024-01-16T13:47:06;4.22;;;2.35;;
77298;SDS011;66361;52.034;20.656;2024-01-16T13:50:55;1.50;;;1.40;;
77298;SDS011;66361;52.034;20.656;2024-01-16T13:54:39;3.00;;;1.67;;
77298;SDS011;66361;52.034;20.656;2024-01-16T13:58:24;3.00;;;2.70;;
77298;SDS011;66361;52.034;20.656;2024-01-16T14:02:09;3.50;;;3.30;;
77298;SDS011;66361;52.034;20.656;2024-01-16T14:05:53;1.88;;;1.77;;
77298;SDS011;66361;52.034;20.656;2024-01-16T14:09:38;2.55;;;2.25;;
77298;SDS011;66361;52.034;20.656;2024-01-16T14:13:24;2.28;;;2.05;;
77298;SDS011;66361;52.034;20.656;2024-01-16T14:17:10;2.58;;;1.95;;
77298;SDS011;66361;52.034;20.656;2024-01-16T14:24:38;5.07;;;3.00;;
77298;SDS011;66361;52.034;20.656;2024-01-16T14:28:23;2.65;;;2.45;;
77298;SDS011;66361;52.034;20.656;2024-01-16T14:32:13;3.08;;;2.20;;
77298;SDS011;66361;52.034;20.656;2024-01-16T14:35:57;2.72;;;2.53;;
77298;SDS011;66361;52.034;20.656;2024-01-16T14:39:44;7.20;;;3.15;;
77298;SDS011;66361;52.034;20.656;2024-01-16T14:43:27;3.08;;;2.83;;
77298;SDS011;66361;52.034;20.656;2024-01-16T14:47:13;5.20;;;3.08;;
77298;SDS011;66361;52.034;20.656;2024-01-16T14:50:57;7.53;;;3.25;;
77298;SDS011;66361;52.034;20.656;2024-01-16T14:54:41;2.45;;;2.25;;
77298;SDS011;66361;52.034;20.656;2024-01-16T14:58:25;3.60;;;3.25;;
77298;SDS011;66361;52.034;20.656;2024-01-16T15:02:08;7.32;;;2.85;;
77298;SDS011;66361;52.034;20.656;2024-01-16T15:05:57;4.30;;;2.78;;
77298;SDS011;66361;52.034;20.656;2024-01-16T15:13:25;5.65;;;3.58;;
77298;SDS011;66361;52.034;20.656;2024-01-16T15:17:08;6.28;;;3.45;;
77298;SDS011;66361;52.034;20.656;2024-01-16T15:20:52;8.13;;;4.50;;
77298;SDS011;66361;52.034;20.656;2024-01-16T15:24:39;11.43;;;6.45;;
77298;SDS011;66361;52.034;20.656;2024-01-16T15:28:22;6.90;;;5.60;;
77298;SDS011;66361;52.034;20.656;2024-01-16T15:32:06;6.47;;;4.05;;
77298;SDS011;66361;52.034;20.656;2024-01-16T15:35:50;7.20;;;6.15;;
77298;SDS011;66361;52.034;20.656;2024-01-16T15:39:34;18.67;;;7.38;;
77298;SDS011;66361;52.034;20.656;2024-01-16T15:43:19;12.07;;;6.43;;
77298;SDS011;66361;52.034;20.656;2024-01-16T15:47:04;18.73;;;10.27;;
77298;SDS011;66361;52.034;20.656;2024-01-16T15:50:48;13.10;;;8.98;;
77298;SDS011;66361;52.034;20.656;2024-01-16T15:54:32;10.43;;;9.23;;
77298;SDS011;66361;52.034;20.656;2024-01-16T15:58:15;9.23;;;6.18;;
77298;SDS011;66361;52.034;20.656;2024-01-16T16:02:01;9.50;;;5.32;;
77298;SDS011;66361;52.034;20.656;2024-01-16T16:05:45;7.38;;;4.82;;
77298;SDS011;66361;52.034;20.656;2024-01-16T16:09:30;6.22;;;4.53;;
77298;SDS011;66361;52.034;20.656;2024-01-16T16:13:14;6.15;;;4.80;;
77298;SDS011;66361;52.034;20.656;2024-01-16T16:17:02;6.15;;;4.63;;
77298;SDS011;66361;52.034;20.656;2024-01-16T16:20:46;7.35;;;4.70;;
77298;SDS011;66361;52.034;20.656;2024-01-16T16:24:30;10.35;;;5.68;;
77298;SDS011;66361;52.034;20.656;2024-01-16T16:28:15;13.27;;;4.78;;
77298;SDS011;66361;52.034;20.656;2024-01-16T16:31:59;12.40;;;4.40;;
77298;SDS011;66361;52.034;20.656;2024-01-16T16:35:44;6.85;;;4.32;;
77298;SDS011;66361;52.034;20.656;2024-01-16T16:39:28;5.72;;;5.20;;
77298;SDS011;66361;52.034;20.656;2024-01-16T16:43:11;5.10;;;4.55;;
77298;SDS011;66361;52.034;20.656;2024-01-16T16:46:57;3.97;;;3.65;;
77298;SDS011;66361;52.034;20.656;2024-01-16T16:50:41;6.07;;;3.80;;
77298;SDS011;66361;52.034;20.656;2024-01-16T16:54:27;10.85;;;5.88;;
77298;SDS011;66361;52.034;20.656;2024-01-16T16:58:12;5.88;;;4.03;;
77298;SDS011;66361;52.034;20.656;2024-01-16T17:01:56;4.57;;;4.18;;
77298;SDS011;66361;52.034;20.656;2024-01-16T17:05:40;4.25;;;3.78;;
77298;SDS011;66361;52.034;20.656;2024-01-16T17:09:24;5.35;;;3.78;;
77298;SDS011;66361;52.034;20.656;2024-01-16T17:13:10;4.78;;;4.07;;
77298;SDS011;66361;52.034;20.656;2024-01-16T17:16:54;6.30;;;4.68;;
77298;SDS011;66361;52.034;20.656;2024-01-16T17:20:38;3.92;;;2.72;;
77298;SDS011;66361;52.034;20.656;2024-01-16T17:24:23;7.25;;;4.25;;
77298;SDS011;66361;52.034;20.656;2024-01-16T17:28:07;4.50;;;3.88;;
77298;SDS011;66361;52.034;20.656;2024-01-16T17:31:52;3.83;;;3.47;;
77298;SDS011;66361;52.034;20.656;2024-01-16T17:35:37;10.20;;;7.00;;
77298;SDS011;66361;52.034;20.656;2024-01-16T17:39:21;7.75;;;6.45;;
77298;SDS011;66361;52.034;20.656;2024-01-16T17:43:07;5.88;;;5.47;;
77298;SDS011;66361;52.034;20.656;2024-01-16T17:46:53;5.70;;;4.55;;
77298;SDS011;66361;52.034;20.656;2024-01-16T17:50:37;5.80;;;4.38;;
77298;SDS011;66361;52.034;20.656;2024-01-16T17:54:21;12.02;;;8.70;;
77298;SDS011;66361;52.034;20.656;2024-01-16T17:58:04;11.82;;;7.90;;
77298;SDS011;66361;52.034;20.656;2024-01-16T18:01:48;10.13;;;7.55;;
77298;SDS011;66361;52.034;20.656;2024-01-16T18:05:34;8.50;;;6.43;;
77298;SDS011;66361;52.034;20.656;2024-01-16T18:09:18;15.63;;;7.32;;
77298;SDS011;66361;52.034;20.656;2024-01-16T18:13:03;10.02;;;9.02;;
77298;SDS011;66361;52.034;20.656;2024-01-16T18:16:48;10.07;;;9.18;;
77298;SDS011;66361;52.034;20.656;2024-01-16T18:20:33;8.82;;;6.40;;
77298;SDS011;66361;52.034;20.656;2024-01-16T18:24:17;14.18;;;8.10;;
77298;SDS011;66361;52.034;20.656;2024-01-16T18:28:03;10.73;;;7.43;;
77298;SDS011;66361;52.034;20.656;2024-01-16T18:31:47;16.33;;;10.43;;
77298;SDS011;66361;52.034;20.656;2024-01-16T18:35:33;22.20;;;12.27;;
77298;SDS011;66361;52.034;20.656;2024-01-16T18:39:17;9.00;;;7.80;;
77298;SDS011;66361;52.034;20.656;2024-01-16T18:43:02;11.80;;;10.48;;
77298;SDS011;66361;52.034;20.656;2024-01-16T18:46:49;16.63;;;12.13;;
77298;SDS011;66361;52.034;20.656;2024-01-16T18:50:35;10.10;;;7.50;;
77298;SDS011;66361;52.034;20.656;2024-01-16T18:54:19;14.20;;;11.57;;
77298;SDS011;66361;52.034;20.656;2024-01-16T18:58:04;10.80;;;8.73;;
77298;SDS011;66361;52.034;20.656;2024-01-16T19:01:52;13.25;;;10.40;;
77298;SDS011;66361;52.034;20.656;2024-01-16T19:05:41;17.48;;;9.25;;
77298;SDS011;66361;52.034;20.656;2024-01-16T19:09:29;10.77;;;9.23;;
77298;SDS011;66361;52.034;20.656;2024-01-16T19:13:19;9.48;;;8.68;;
77298;SDS011;66361;52.034;20.656;2024-01-16T19:17:06;11.88;;;7.85;;
77298;SDS011;66361;52.034;20.656;2024-01-16T19:20:54;12.05;;;9.80;;
77298;SDS011;66361;52.034;20.656;2024-01-16T19:24:38;18.60;;;9.52;;
77298;SDS011;66361;52.034;20.656;2024-01-16T19:28:22;14.60;;;10.35;;
77298;SDS011;66361;52.034;20.656;2024-01-16T19:32:06;6.90;;;5.93;;
77298;SDS011;66361;52.034;20.656;2024-01-16T19:35:50;10.45;;;4.70;;
77298;SDS011;66361;52.034;20.656;2024-01-16T19:39:35;15.48;;;11.55;;
77298;SDS011;66361;52.034;20.656;2024-01-16T19:43:24;24.00;;;13.57;;
77298;SDS011;66361;52.034;20.656;2024-01-16T19:47:08;22.35;;;16.73;;
77298;SDS011;66361;52.034;20.656;2024-01-16T19:50:54;18.13;;;12.43;;
77298;SDS011;66361;52.034;20.656;2024-01-16T19:54:39;25.85;;;18.52;;
77298;SDS011;66361;52.034;20.656;2024-01-16T19:58:26;35.40;;;18.90;;
77298;SDS011;66361;52.034;20.656;2024-01-16T20:02:10;33.67;;;23.55;;
77298;SDS011;66361;52.034;20.656;2024-01-16T20:05:55;37.60;;;18.45;;
77298;SDS011;66361;52.034;20.656;2024-01-16T20:09:40;43.92;;;25.90;;
77298;SDS011;66361;52.034;20.656;2024-01-16T20:13:26;30.17;;;21.35;;
77298;SDS011;66361;52.034;20.656;2024-01-16T20:17:10;35.20;;;23.45;;
77298;SDS011;66361;52.034;20.656;2024-01-16T20:20:56;47.20;;;22.27;;
77298;SDS011;66361;52.034;20.656;2024-01-16T20:24:42;30.40;;;18.65;;
77298;SDS011;66361;52.034;20.656;2024-01-16T20:28:27;40.70;;;22.10;;
77298;SDS011;66361;52.034;20.656;2024-01-16T20:32:11;30.08;;;16.98;;
77298;SDS011;66361;52.034;20.656;2024-01-16T20:35:55;33.80;;;19.55;;
77298;SDS011;66361;52.034;20.656;2024-01-16T20:39:41;38.22;;;19.65;;
77298;SDS011;66361;52.034;20.656;2024-01-16T20:43:26;22.92;;;15.88;;
77298;SDS011;66361;52.034;20.656;2024-01-16T20:47:10;25.92;;;14.90;;
77298;SDS011;66361;52.034;20.656;2024-01-16T20:50:57;23.85;;;15.40;;
77298;SDS011;66361;52.034;20.656;2024-01-16T20:54:43;23.88;;;14.70;;
77298;SDS011;66361;52.034;20.656;2024-01-16T20:58:27;28.90;;;17.25;;
77298;SDS011;66361;52.034;20.656;2024-01-16T21:02:11;34.45;;;18.90;;
77298;SDS011;66361;52.034;20.656;2024-01-16T21:05:55;36.08;;;20.02;;
77298;SDS011;66361;52.034;20.656;2024-01-16T21:09:41;41.85;;;22.45;;
77298;SDS011;66361;52.034;20.656;2024-01-16T21:13:27;47.22;;;21.23;;
77298;SDS011;66361;52.034;20.656;2024-01-16T21:17:12;35.72;;;20.17;;
77298;SDS011;66361;52.034;20.656;2024-01-16T21:20:56;37.78;;;21.10;;
77298;SDS011;66361;52.034;20.656;2024-01-16T21:24:40;34.10;;;18.60;;
77298;SDS011;66361;52.034;20.656;2024-01-16T21:28:25;47.85;;;24.85;;
77298;SDS011;66361;52.034;20.656;2024-01-16T21:32:12;30.63;;;22.95;;
77298;SDS011;66361;52.034;20.656;2024-01-16T21:35:56;29.95;;;21.23;;
77298;SDS011;66361;52.034;20.656;2024-01-16T21:39:41;40.60;;;23.80;;
77298;SDS011;66361;52.034;20.656;2024-01-16T21:43:27;37.42;;;18.88;;
77298;SDS011;66361;52.034;20.656;2024-01-16T21:47:10;37.03;;;21.60;;
77298;SDS011;66361;52.034;20.656;2024-01-16T21:50:54;39.60;;;19.40;;
77298;SDS011;66361;52.034;20.656;2024-01-16T21:54:39;42.20;;;24.60;;
77298;SDS011;66361;52.034;20.656;2024-01-16T21:58:23;43.63;;;25.65;;
77298;SDS011;66361;52.034;20.656;2024-01-16T22:02:10;46.70;;;20.35;;
77298;SDS011;66361;52.034;20.656;2024-01-16T22:05:55;43.33;;;22.02;;
77298;SDS011;66361;52.034;20.656;2024-01-16T22:09:39;40.25;;;26.58;;
77298;SDS011;66361;52.034;20.656;2024-01-16T22:13:24;64.30;;;31.15;;
77298;SDS011;66361;52.034;20.656;2024-01-16T22:17:09;52.30;;;30.15;;
77298;SDS011;66361;52.034;20.656;2024-01-16T22:20:53;50.30;;;23.17;;
77298;SDS011;66361;52.034;20.656;2024-01-16T22:24:37;35.67;;;21.25;;
77298;SDS011;66361;52.034;20.656;2024-01-16T22:28:24;33.42;;;20.77;;
77298;SDS011;66361;52.034;20.656;2024-01-16T22:32:09;24.75;;;16.70;;
77298;SDS011;66361;52.034;20.656;2024-01-16T22:35:55;23.27;;;15.98;;
77298;SDS011;66361;52.034;20.656;2024-01-16T22:39:39;26.25;;;14.68;;